Springfield, Virginia
Current Conditions -  °F | °C
As of 9:58 AM on Friday 19 Dec 2014 (Local Time) from KDAA Reporting Station
Overcast Overcast  
Wind Chill: 28°   Ceiling: 3500
Heat Index: 37°   Visibility: 10mi
Dew Point: 22°   Wind: 14mph
Humidity: 56%   Direction: 320°NW
Pressure: 30.19"   Gusts: NA
Location:  38.78°N, 77.19°W
Report Text: KDAA 191458Z AUTO 32012KT 10SM OVC035 03/M05 A3019 RMK AO2 SLP227 T00261054 52013
Loading
Personal Weather Stations






























Interactive Weather Map New forecast layout! Learn more

10-Day Weather Forecast

Advertisements
Track Severe Weather on mobile